Hauptseite
METAR-TAF:

METAR-TAF

Flughäfen :

Brize Norton, England

RAF Brize Norton

Breite: 51-45N, Länge: 001-35W, Höhe: 88 m

Beobachtung

Neuester Wetterbericht von vor 34 Minuten, um 00:50 UTC
Wind 9 kt aus Ost/Nordost
Temperatur 0°C
Luftfeuchtigkeit 86%
Luftdruck 1025 hPa
Sichtweite 10 km oder mehr
Leicht bewölkt in der Höhe von 2000 ft

METAR: EGVN 250050Z 07009KT 9999 FEW020 00/M02 Q1025 BLU TEMPO SCT020 WHT

Zeit: 01:24 (01:24 UTC)

Prognose

Neuester Wetterbericht von vor 2 Stunden und 59 Minuten, um 22:25 UTC
Gültige Prognose vom 25 um 00 UTC bis 25 um 24 UTC
Wind 10 kt aus Ost
Sichtweite 10 km oder mehr
Leicht bewölkt in der Höhe von 2500 ft
Wahrscheinlichkeit 40%
vom 25 um 00 UTC bis 25 um 09 UTC
Sichtweite: 6000 m
Aufgelockert bewölkt in der Höhe von 2200 ft
trockener Dunst

TAF: EGVN 242225Z 2500/2524 09010KT 9999 FEW025 PROB40 2500/2509 6000 HZ SCT022

Wetterbeobachtungen und Prognosen von mehr als 4000 Flughäfen (METAR und TAF Bericht).

Die verfügbaren Stationen werden durch gelbe und rote Markierungen auf der Karte dargestellt.

Führen Sie die Maus auf sie, um den Namen der Station zu sehen.

Darauf klicken, um die Beobachtung von Wetterbeobachtungen und Prognosen zu sehen.

Um die Karte zu ändern : klicken Sie auf den grünen Tasten mit einem schwarzen Kreuz Zum Vergrößern, auf den grünen Button mit einem Gedankenstrich zu verkleinern, oder auf die grünen Pfeile für benachbarte Karten.


METAR-TAF: